createdAt,value
2019-06-25T00:00:19.223Z,18.70
2019-06-25T00:05:03.906Z,18.80
2019-06-25T00:09:48.545Z,18.80
2019-06-25T00:14:33.109Z,18.70
2019-06-25T00:19:17.740Z,18.60
2019-06-25T00:24:02.516Z,18.60
2019-06-25T00:28:47.622Z,18.50
2019-06-25T00:33:32.821Z,18.40
2019-06-25T00:38:17.538Z,18.20
2019-06-25T00:43:02.301Z,18.10
2019-06-25T00:47:47.090Z,18.10
2019-06-25T00:52:32.041Z,18.20
2019-06-25T00:57:16.585Z,18.30
2019-06-25T01:02:08.789Z,18.30
2019-06-25T01:06:53.388Z,18.30
2019-06-25T01:11:38.007Z,18.40
2019-06-25T01:16:22.649Z,18.30
2019-06-25T01:21:07.113Z,18.20
2019-06-25T01:25:51.631Z,18.20
2019-06-25T01:30:39.051Z,18.20
2019-06-25T01:35:23.747Z,18.20
2019-06-25T01:40:08.401Z,18.10
2019-06-25T01:44:53.094Z,18.10
2019-06-25T01:49:37.695Z,18.00
2019-06-25T01:54:22.335Z,17.90
2019-06-25T01:59:06.834Z,17.80
2019-06-25T02:03:51.422Z,17.60
2019-06-25T02:08:36.162Z,17.60
2019-06-25T02:13:20.752Z,17.50
2019-06-25T02:18:06.208Z,17.50
2019-06-25T02:22:50.899Z,17.30
2019-06-25T02:27:35.875Z,17.30
2019-06-25T02:32:20.542Z,17.30
2019-06-25T02:37:05.464Z,17.30
2019-06-25T02:41:50.164Z,17.20
2019-06-25T02:46:34.926Z,17.10
2019-06-25T02:51:20.143Z,16.90
2019-06-25T02:56:05.017Z,16.80
2019-06-25T03:00:49.938Z,16.80
2019-06-25T03:05:34.674Z,16.80
2019-06-25T03:10:19.465Z,16.80
2019-06-25T03:15:04.504Z,16.90
2019-06-25T03:19:49.203Z,17.20
2019-06-25T03:24:34.291Z,17.30
2019-06-25T03:29:19.299Z,17.70
2019-06-25T03:34:03.950Z,17.90
2019-06-25T03:38:49.234Z,18.20
2019-06-25T03:43:33.919Z,18.40
2019-06-25T03:48:18.769Z,18.60
2019-06-25T03:53:03.795Z,18.90
2019-06-25T03:57:48.814Z,19.60
2019-06-25T04:02:33.780Z,20.80
2019-06-25T04:07:18.556Z,21.80
2019-06-25T04:12:03.219Z,22.10
2019-06-25T04:16:48.099Z,22.00
2019-06-25T04:21:36.788Z,21.60
2019-06-25T04:26:21.422Z,21.30
2019-06-25T04:31:08.921Z,21.30
2019-06-25T04:35:53.527Z,21.40
2019-06-25T04:40:40.520Z,21.40
2019-06-25T04:45:25.708Z,21.50
2019-06-25T04:50:10.841Z,21.60
2019-06-25T04:54:55.689Z,21.80
2019-06-25T04:59:40.753Z,22.00
2019-06-25T05:04:25.749Z,22.20
2019-06-25T05:09:10.499Z,22.50
2019-06-25T05:13:56.167Z,22.70
2019-06-25T05:18:40.725Z,22.80
2019-06-25T05:23:36.590Z,23.00
2019-06-25T05:28:21.263Z,23.10
2019-06-25T05:33:06.380Z,23.20
2019-06-25T05:37:50.954Z,23.40
2019-06-25T05:42:35.462Z,23.70
2019-06-25T05:47:20.178Z,23.90
2019-06-25T05:52:04.837Z,24.20
2019-06-25T05:56:49.777Z,24.50
2019-06-25T06:01:34.678Z,24.40
2019-06-25T06:06:19.614Z,24.80
2019-06-25T06:11:04.117Z,24.90
2019-06-25T06:15:48.826Z,25.10
2019-06-25T06:20:33.460Z,25.40
2019-06-25T06:25:18.283Z,25.40
2019-06-25T06:30:02.725Z,25.60
2019-06-25T06:34:47.471Z,25.90
2019-06-25T06:39:32.456Z,26.20
2019-06-25T06:44:17.180Z,26.60
2019-06-25T06:49:01.697Z,27.00
2019-06-25T06:53:46.458Z,27.30
2019-06-25T06:58:31.216Z,27.50
2019-06-25T07:03:16.218Z,27.70
2019-06-25T07:08:00.914Z,28.30
2019-06-25T07:12:45.617Z,28.10
2019-06-25T07:17:30.704Z,28.70
2019-06-25T07:22:17.284Z,29.10
2019-06-25T07:27:02.102Z,29.30
2019-06-25T07:31:47.234Z,29.60
2019-06-25T07:36:31.738Z,29.70
2019-06-25T07:41:16.431Z,29.80
2019-06-25T07:46:01.069Z,29.90
2019-06-25T07:50:45.734Z,30.30
2019-06-25T07:55:30.546Z,30.40
2019-06-25T08:00:15.458Z,30.60
2019-06-25T08:05:00.260Z,30.60
2019-06-25T08:09:45.073Z,30.90
2019-06-25T08:14:29.622Z,30.80
2019-06-25T08:19:14.455Z,31.20
2019-06-25T08:23:59.059Z,31.40
2019-06-25T08:28:43.760Z,31.50
2019-06-25T08:33:28.392Z,31.40
2019-06-25T08:38:15.007Z,31.90
2019-06-25T08:42:59.486Z,32.00
2019-06-25T08:47:44.282Z,32.20
2019-06-25T08:52:28.868Z,32.40
2019-06-25T08:57:13.470Z,32.50
2019-06-25T09:02:00.836Z,32.90
2019-06-25T09:06:45.498Z,33.00
2019-06-25T09:11:30.301Z,32.70
2019-06-25T09:16:15.024Z,32.30
2019-06-25T09:20:59.800Z,32.30
2019-06-25T09:25:44.430Z,33.10
2019-06-25T09:30:29.463Z,33.00
2019-06-25T09:35:18.898Z,33.30
2019-06-25T09:39:59.059Z,33.60
2019-06-25T09:44:41.921Z,34.20
2019-06-25T09:49:26.932Z,33.90
2019-06-25T09:54:11.479Z,34.30
2019-06-25T09:58:57.321Z,34.70
2019-06-25T10:03:41.943Z,34.30
2019-06-25T10:08:26.618Z,33.70
2019-06-25T10:13:11.220Z,33.90
2019-06-25T10:17:56.879Z,34.40
2019-06-25T10:22:41.560Z,34.30
2019-06-25T10:27:26.297Z,34.10
2019-06-25T10:32:10.922Z,34.50
2019-06-25T10:36:55.676Z,34.60
2019-06-25T10:41:40.402Z,35.10
2019-06-25T10:46:26.454Z,35.20
2019-06-25T10:51:10.997Z,35.20
2019-06-25T10:55:56.041Z,35.00
2019-06-25T11:00:50.938Z,35.10
2019-06-25T11:05:39.232Z,35.50
2019-06-25T11:10:26.822Z,35.10
2019-06-25T11:15:15.750Z,35.20
2019-06-25T11:20:01.913Z,35.90
2019-06-25T11:24:46.551Z,35.20
2019-06-25T11:29:32.273Z,35.10
2019-06-25T11:34:25.411Z,35.20
2019-06-25T11:39:10.961Z,35.40
2019-06-25T11:43:57.519Z,35.90
2019-06-25T11:48:45.184Z,36.30
2019-06-25T11:53:35.084Z,36.60
2019-06-25T11:58:26.770Z,37.20
2019-06-25T12:03:17.868Z,36.50
2019-06-25T12:08:02.493Z,36.30
2019-06-25T12:12:47.268Z,36.20
2019-06-25T12:17:34.103Z,35.90
2019-06-25T12:22:18.833Z,36.60
2019-06-25T12:27:03.385Z,37.00
2019-06-25T12:31:47.954Z,35.80
2019-06-25T12:36:32.536Z,36.40
2019-06-25T12:41:17.298Z,36.80
2019-06-25T12:46:02.110Z,37.10
2019-06-25T12:50:49.658Z,37.30
2019-06-25T12:55:34.608Z,37.30
2019-06-25T13:00:19.466Z,37.30
2019-06-25T13:05:04.242Z,37.10
2019-06-25T13:09:49.018Z,36.50
2019-06-25T13:14:34.178Z,36.30
2019-06-25T13:19:19.690Z,36.80
2019-06-25T13:24:04.300Z,36.80
2019-06-25T13:28:48.949Z,37.30
2019-06-25T13:33:33.617Z,37.30
2019-06-25T13:38:21.421Z,37.40
2019-06-25T13:43:06.455Z,37.70
2019-06-25T13:47:51.160Z,37.80
2019-06-25T13:52:37.462Z,37.50
2019-06-25T13:57:22.351Z,37.60
2019-06-25T14:02:09.104Z,37.80
2019-06-25T14:06:54.021Z,37.90
2019-06-25T14:11:42.439Z,38.10
2019-06-25T14:16:28.782Z,38.20
2019-06-25T14:21:16.228Z,37.90
2019-06-25T14:26:10.515Z,37.80
2019-06-25T14:30:50.939Z,38.20
2019-06-25T14:35:35.749Z,38.10
2019-06-25T14:40:21.834Z,37.80
2019-06-25T14:45:07.962Z,37.40
2019-06-25T14:49:52.728Z,37.50
2019-06-25T14:54:37.820Z,37.60
2019-06-25T14:59:22.768Z,38.00
2019-06-25T15:04:07.371Z,37.50
2019-06-25T15:08:52.424Z,37.60
2019-06-25T15:13:41.309Z,37.70
2019-06-25T15:18:31.297Z,37.20
2019-06-25T15:23:18.345Z,36.70
2019-06-25T15:28:10.727Z,36.70
2019-06-25T15:32:59.969Z,36.90
2019-06-25T15:37:47.605Z,36.90
2019-06-25T15:42:32.498Z,36.90
2019-06-25T15:47:17.375Z,37.40
2019-06-25T15:52:02.165Z,37.90
2019-06-25T15:56:47.361Z,38.30
2019-06-25T16:01:32.715Z,39.60
2019-06-25T16:06:17.227Z,39.10
2019-06-25T16:11:03.256Z,39.60
2019-06-25T16:15:51.119Z,40.00
2019-06-25T16:20:38.913Z,40.50
2019-06-25T16:25:23.608Z,40.90
2019-06-25T16:30:08.742Z,40.30
2019-06-25T16:34:56.516Z,40.80
2019-06-25T16:39:41.870Z,40.70
2019-06-25T16:44:26.858Z,40.00
2019-06-25T16:49:11.960Z,39.90
2019-06-25T16:53:56.638Z,40.10
2019-06-25T16:58:43.545Z,40.50
2019-06-25T17:03:28.660Z,40.80
2019-06-25T17:08:13.476Z,40.70
2019-06-25T17:12:58.232Z,40.00
2019-06-25T17:17:42.925Z,39.40
2019-06-25T17:22:27.800Z,39.50
2019-06-25T17:27:12.481Z,38.70
2019-06-25T17:31:57.141Z,38.20
2019-06-25T17:36:41.887Z,38.00
2019-06-25T17:41:26.401Z,37.50
2019-06-25T17:46:11.167Z,37.40
2019-06-25T17:50:55.900Z,37.30
2019-06-25T17:55:40.888Z,35.70
2019-06-25T18:00:25.763Z,34.40
2019-06-25T18:05:10.911Z,33.70
2019-06-25T18:10:07.138Z,32.90
2019-06-25T18:14:42.341Z,32.00
2019-06-25T18:19:29.766Z,31.20
2019-06-25T18:24:14.342Z,30.80
2019-06-25T18:28:59.055Z,30.30
2019-06-25T18:33:43.558Z,29.80
2019-06-25T18:38:28.293Z,29.60
2019-06-25T18:43:13.555Z,29.40
2019-06-25T18:47:58.222Z,29.10
2019-06-25T18:52:42.798Z,28.90
2019-06-25T18:57:27.577Z,28.70
2019-06-25T19:02:12.660Z,28.40
2019-06-25T19:06:57.780Z,28.30
2019-06-25T19:11:42.564Z,28.10
2019-06-25T19:16:27.322Z,27.80
2019-06-25T19:21:11.875Z,27.70
2019-06-25T19:25:56.646Z,27.50
2019-06-25T19:30:41.387Z,27.30
2019-06-25T19:35:26.141Z,27.00
2019-06-25T19:40:11.155Z,26.90
2019-06-25T19:44:55.895Z,26.80
2019-06-25T19:49:42.339Z,26.70
2019-06-25T19:54:27.277Z,26.50
2019-06-25T19:59:12.240Z,26.30
2019-06-25T20:03:57.160Z,26.00
2019-06-25T20:08:41.844Z,25.90
2019-06-25T20:13:26.519Z,25.70
2019-06-25T20:18:11.118Z,25.50
2019-06-25T20:22:59.210Z,25.30
2019-06-25T20:27:44.178Z,25.10
2019-06-25T20:32:29.288Z,25.00
2019-06-25T20:37:14.001Z,25.00
2019-06-25T20:41:58.644Z,25.10
2019-06-25T20:46:43.281Z,25.00
2019-06-25T20:51:27.805Z,24.90
2019-06-25T20:56:12.389Z,24.90
2019-06-25T21:00:57.097Z,25.00
2019-06-25T21:05:41.643Z,25.00
2019-06-25T21:10:26.362Z,25.00
2019-06-25T21:15:11.414Z,24.90
2019-06-25T21:19:56.146Z,24.80
2019-06-25T21:24:40.670Z,24.50
2019-06-25T21:29:25.319Z,24.50
2019-06-25T21:34:10.149Z,24.40
2019-06-25T21:38:54.884Z,24.40
2019-06-25T21:43:39.615Z,24.20
2019-06-25T21:48:24.281Z,24.20
2019-06-25T21:53:08.800Z,24.10
2019-06-25T21:57:53.505Z,24.10
2019-06-25T22:02:40.575Z,24.00
2019-06-25T22:07:25.362Z,24.10
2019-06-25T22:12:20.818Z,23.80
2019-06-25T22:16:56.351Z,23.50
2019-06-25T22:21:41.091Z,23.30
2019-06-25T22:26:26.346Z,23.20
2019-06-25T22:31:11.146Z,23.10
2019-06-25T22:35:55.955Z,23.00
2019-06-25T22:40:40.794Z,22.90
2019-06-25T22:45:26.045Z,22.80
2019-06-25T22:50:11.374Z,22.70
2019-06-25T22:54:56.457Z,22.60
2019-06-25T22:59:41.336Z,22.40
2019-06-25T23:04:26.204Z,22.10
2019-06-25T23:09:10.802Z,21.80
2019-06-25T23:14:11.554Z,21.60
2019-06-25T23:18:56.424Z,21.60
2019-06-25T23:23:41.438Z,21.60
2019-06-25T23:28:26.477Z,21.70
2019-06-25T23:33:11.214Z,22.00
2019-06-25T23:37:55.898Z,22.20
2019-06-25T23:42:41.076Z,22.30
2019-06-25T23:47:25.648Z,22.30
2019-06-25T23:52:10.852Z,22.30
2019-06-25T23:56:55.550Z,22.20
